sensor_id;sensor_type;location;lat;lon;timestamp;pressure;altitude;pressure_sealevel;temperature;humidity
21728;BME280;11026;50.560;17.852;2022-10-16T00:01:40;99610.31;;;13.63;100.00
21728;BME280;11026;50.560;17.852;2022-10-16T00:04:08;99606.97;;;13.60;100.00
21728;BME280;11026;50.560;17.852;2022-10-16T00:06:35;99611.34;;;13.61;100.00
21728;BME280;11026;50.560;17.852;2022-10-16T00:09:02;99609.53;;;13.61;100.00
21728;BME280;11026;50.560;17.852;2022-10-16T00:11:32;99602.59;;;13.59;100.00
21728;BME280;11026;50.560;17.852;2022-10-16T00:14:03;99603.38;;;13.61;100.00
21728;BME280;11026;50.560;17.852;2022-10-16T00:16:31;99606.03;;;13.61;100.00
21728;BME280;11026;50.560;17.852;2022-10-16T00:19:02;99599.75;;;13.62;100.00
21728;BME280;11026;50.560;17.852;2022-10-16T00:21:30;99606.63;;;13.66;100.00
21728;BME280;11026;50.560;17.852;2022-10-16T00:24:00;99598.06;;;13.61;100.00
21728;BME280;11026;50.560;17.852;2022-10-16T00:26:30;99604.91;;;13.65;100.00
21728;BME280;11026;50.560;17.852;2022-10-16T00:29:03;99599.00;;;13.60;100.00
21728;BME280;11026;50.560;17.852;2022-10-16T00:31:31;99605.84;;;13.64;100.00
21728;BME280;11026;50.560;17.852;2022-10-16T00:33:58;99598.56;;;13.67;100.00
21728;BME280;11026;50.560;17.852;2022-10-16T00:36:26;99605.75;;;13.65;100.00
21728;BME280;11026;50.560;17.852;2022-10-16T00:38:57;99603.47;;;13.59;100.00
21728;BME280;11026;50.560;17.852;2022-10-16T00:41:34;99612.88;;;13.65;100.00
21728;BME280;11026;50.560;17.852;2022-10-16T00:44:03;99623.25;;;13.69;100.00
21728;BME280;11026;50.560;17.852;2022-10-16T00:46:41;99627.03;;;13.65;100.00
21728;BME280;11026;50.560;17.852;2022-10-16T00:49:11;99625.22;;;13.66;100.00
21728;BME280;11026;50.560;17.852;2022-10-16T00:51:44;99616.41;;;13.65;100.00
21728;BME280;11026;50.560;17.852;2022-10-16T00:54:19;99612.13;;;13.63;100.00
21728;BME280;11026;50.560;17.852;2022-10-16T00:56:47;99604.84;;;13.66;100.00
21728;BME280;11026;50.560;17.852;2022-10-16T00:59:20;99619.84;;;13.67;100.00
21728;BME280;11026;50.560;17.852;2022-10-16T01:01:49;99628.66;;;13.68;100.00
21728;BME280;11026;50.560;17.852;2022-10-16T01:04:18;99627.72;;;13.69;100.00
21728;BME280;11026;50.560;17.852;2022-10-16T01:12:30;99642.28;;;13.62;100.00
21728;BME280;11026;50.560;17.852;2022-10-16T01:15:09;99638.50;;;13.66;100.00
21728;BME280;11026;50.560;17.852;2022-10-16T01:17:42;99646.16;;;13.72;100.00
21728;BME280;11026;50.560;17.852;2022-10-16T01:20:32;99639.91;;;13.73;100.00
21728;BME280;11026;50.560;17.852;2022-10-16T01:25:59;99643.50;;;13.72;100.00
21728;BME280;11026;50.560;17.852;2022-10-16T01:28:41;99634.59;;;13.73;100.00
21728;BME280;11026;50.560;17.852;2022-10-16T01:31:14;99634.16;;;13.65;100.00
21728;BME280;11026;50.560;17.852;2022-10-16T01:33:46;99635.53;;;13.72;100.00
21728;BME280;11026;50.560;17.852;2022-10-16T01:36:29;99636.81;;;13.65;100.00
21728;BME280;11026;50.560;17.852;2022-10-16T01:39:01;99637.84;;;13.62;100.00
21728;BME280;11026;50.560;17.852;2022-10-16T01:41:44;99640.25;;;13.67;100.00
21728;BME280;11026;50.560;17.852;2022-10-16T01:44:19;99646.25;;;13.70;100.00
21728;BME280;11026;50.560;17.852;2022-10-16T01:46:52;99645.56;;;13.67;100.00
21728;BME280;11026;50.560;17.852;2022-10-16T01:49:21;99650.03;;;13.66;100.00
21728;BME280;11026;50.560;17.852;2022-10-16T01:51:52;99653.59;;;13.65;100.00
21728;BME280;11026;50.560;17.852;2022-10-16T01:54:23;99646.16;;;13.72;100.00
21728;BME280;11026;50.560;17.852;2022-10-16T01:56:54;99644.47;;;13.71;100.00
21728;BME280;11026;50.560;17.852;2022-10-16T01:59:24;99650.53;;;13.73;100.00
21728;BME280;11026;50.560;17.852;2022-10-16T02:01:55;99657.50;;;13.75;100.00
21728;BME280;11026;50.560;17.852;2022-10-16T02:04:33;99646.00;;;13.75;100.00
21728;BME280;11026;50.560;17.852;2022-10-16T02:07:01;99644.78;;;13.81;100.00
21728;BME280;11026;50.560;17.852;2022-10-16T02:09:30;99660.69;;;13.82;100.00
21728;BME280;11026;50.560;17.852;2022-10-16T02:12:05;99646.19;;;13.88;100.00
21728;BME280;11026;50.560;17.852;2022-10-16T02:14:33;99653.13;;;13.90;100.00
21728;BME280;11026;50.560;17.852;2022-10-16T02:17:11;99652.78;;;13.96;100.00
21728;BME280;11026;50.560;17.852;2022-10-16T02:19:38;99644.03;;;13.94;100.00
21728;BME280;11026;50.560;17.852;2022-10-16T02:22:09;99643.69;;;14.00;100.00
21728;BME280;11026;50.560;17.852;2022-10-16T02:24:54;99651.50;;;14.03;100.00
21728;BME280;11026;50.560;17.852;2022-10-16T02:27:53;99653.97;;;14.07;100.00
21728;BME280;11026;50.560;17.852;2022-10-16T02:30:26;99654.94;;;14.06;100.00
21728;BME280;11026;50.560;17.852;2022-10-16T02:32:55;99646.97;;;14.06;100.00
21728;BME280;11026;50.560;17.852;2022-10-16T02:35:24;99646.16;;;14.03;100.00
21728;BME280;11026;50.560;17.852;2022-10-16T02:37:52;99646.69;;;14.10;100.00
21728;BME280;11026;50.560;17.852;2022-10-16T02:40:20;99645.22;;;14.05;100.00
21728;BME280;11026;50.560;17.852;2022-10-16T02:42:54;99637.94;;;14.08;100.00
21728;BME280;11026;50.560;17.852;2022-10-16T02:45:22;99650.09;;;14.12;100.00
21728;BME280;11026;50.560;17.852;2022-10-16T02:47:52;99648.31;;;14.13;100.00
21728;BME280;11026;50.560;17.852;2022-10-16T02:50:19;99645.16;;;14.06;100.00
21728;BME280;11026;50.560;17.852;2022-10-16T02:52:46;99650.22;;;14.11;100.00
21728;BME280;11026;50.560;17.852;2022-10-16T02:55:13;99653.81;;;14.10;100.00
21728;BME280;11026;50.560;17.852;2022-10-16T02:57:41;99656.47;;;14.10;100.00
21728;BME280;11026;50.560;17.852;2022-10-16T03:00:14;99657.34;;;14.10;100.00
21728;BME280;11026;50.560;17.852;2022-10-16T03:02:43;99658.94;;;14.13;100.00
21728;BME280;11026;50.560;17.852;2022-10-16T03:05:10;99652.88;;;14.11;100.00
21728;BME280;11026;50.560;17.852;2022-10-16T03:07:37;99645.16;;;14.06;100.00
21728;BME280;11026;50.560;17.852;2022-10-16T03:10:06;99644.88;;;14.11;100.00
21728;BME280;11026;50.560;17.852;2022-10-16T03:12:39;99656.38;;;14.11;100.00
21728;BME280;11026;50.560;17.852;2022-10-16T03:15:07;99666.34;;;14.08;100.00
21728;BME280;11026;50.560;17.852;2022-10-16T03:17:36;99669.00;;;14.08;100.00
21728;BME280;11026;50.560;17.852;2022-10-16T03:20:03;99666.34;;;14.08;100.00
21728;BME280;11026;50.560;17.852;2022-10-16T03:22:30;99662.91;;;14.06;100.00
21728;BME280;11026;50.560;17.852;2022-10-16T03:24:57;99668.25;;;14.06;100.00
21728;BME280;11026;50.560;17.852;2022-10-16T03:27:25;99673.56;;;14.06;100.00
21728;BME280;11026;50.560;17.852;2022-10-16T03:29:53;99676.97;;;14.08;100.00
21728;BME280;11026;50.560;17.852;2022-10-16T03:32:20;99661.53;;;13.98;100.00
21728;BME280;11026;50.560;17.852;2022-10-16T03:34:47;99663.78;;;14.06;100.00
21728;BME280;11026;50.560;17.852;2022-10-16T03:37:14;99651.66;;;14.00;100.00
21728;BME280;11026;50.560;17.852;2022-10-16T03:39:41;99668.25;;;14.06;100.00
21728;BME280;11026;50.560;17.852;2022-10-16T03:42:09;99666.66;;;14.01;100.00
21728;BME280;11026;50.560;17.852;2022-10-16T03:44:36;99668.72;;;13.96;100.00
21728;BME280;11026;50.560;17.852;2022-10-16T03:47:05;99676.81;;;13.95;100.00
21728;BME280;11026;50.560;17.852;2022-10-16T03:49:32;99661.53;;;13.98;100.00
21728;BME280;11026;50.560;17.852;2022-10-16T03:51:59;99676.53;;;13.99;100.00
21728;BME280;11026;50.560;17.852;2022-10-16T03:54:26;99682.81;;;13.98;100.00
21728;BME280;11026;50.560;17.852;2022-10-16T03:56:53;99680.84;;;14.02;100.00
21728;BME280;11026;50.560;17.852;2022-10-16T03:59:20;99673.03;;;13.99;100.00
21728;BME280;11026;50.560;17.852;2022-10-16T04:01:47;99679.97;;;14.01;100.00
21728;BME280;11026;50.560;17.852;2022-10-16T04:04:14;99687.03;;;14.02;100.00
21728;BME280;11026;50.560;17.852;2022-10-16T04:06:41;99684.38;;;14.02;100.00
21728;BME280;11026;50.560;17.852;2022-10-16T04:09:08;99675.44;;;14.03;100.00
21728;BME280;11026;50.560;17.852;2022-10-16T04:11:34;99686.66;;;14.09;100.00
21728;BME280;11026;50.560;17.852;2022-10-16T04:14:01;99678.88;;;14.06;100.00
21728;BME280;11026;50.560;17.852;2022-10-16T04:16:29;99692.59;;;14.14;100.00
21728;BME280;11026;50.560;17.852;2022-10-16T04:18:57;99696.97;;;14.15;100.00
21728;BME280;11026;50.560;17.852;2022-10-16T04:21:26;99703.91;;;14.17;100.00
21728;BME280;11026;50.560;17.852;2022-10-16T04:23:53;99710.28;;;14.15;100.00
21728;BME280;11026;50.560;17.852;2022-10-16T04:26:20;99714.66;;;14.16;100.00
21728;BME280;11026;50.560;17.852;2022-10-16T04:28:48;99706.75;;;14.14;100.00
21728;BME280;11026;50.560;17.852;2022-10-16T04:31:15;99711.97;;;14.16;100.00
21728;BME280;11026;50.560;17.852;2022-10-16T04:33:43;99703.25;;;14.14;100.00
21728;BME280;11026;50.560;17.852;2022-10-16T04:36:10;99712.94;;;14.15;100.00
21728;BME280;11026;50.560;17.852;2022-10-16T04:38:37;99702.28;;;14.15;100.00
21728;BME280;11026;50.560;17.852;2022-10-16T04:41:06;99709.50;;;14.13;100.00
21728;BME280;11026;50.560;17.852;2022-10-16T04:43:34;99703.25;;;14.14;100.00
21728;BME280;11026;50.560;17.852;2022-10-16T04:46:02;99699.63;;;14.15;100.00
21728;BME280;11026;50.560;17.852;2022-10-16T04:48:32;99703.91;;;14.17;100.00
21728;BME280;11026;50.560;17.852;2022-10-16T04:51:06;99709.22;;;14.17;100.00
21728;BME280;11026;50.560;17.852;2022-10-16T04:53:34;99705.66;;;14.18;100.00
21728;BME280;11026;50.560;17.852;2022-10-16T04:56:02;99714.38;;;14.20;100.00
21728;BME280;11026;50.560;17.852;2022-10-16T04:58:29;99710.81;;;14.21;100.00
21728;BME280;11026;50.560;17.852;2022-10-16T05:00:57;99709.75;;;14.24;100.00
21728;BME280;11026;50.560;17.852;2022-10-16T05:03:24;99709.75;;;14.24;100.00
21728;BME280;11026;50.560;17.852;2022-10-16T05:05:52;99719.53;;;14.23;100.00
21728;BME280;11026;50.560;17.852;2022-10-16T05:08:19;99724.69;;;14.26;100.00
21728;BME280;11026;50.560;17.852;2022-10-16T05:10:46;99728.97;;;14.29;100.00
21728;BME280;11026;50.560;17.852;2022-10-16T05:13:13;99734.13;;;14.32;100.00
21728;BME280;11026;50.560;17.852;2022-10-16T05:15:41;99728.63;;;14.35;99.97
21728;BME280;11026;50.560;17.852;2022-10-16T05:18:08;99737.22;;;14.40;99.85
21728;BME280;11026;50.560;17.852;2022-10-16T05:20:36;99728.31;;;14.41;99.44
21728;BME280;11026;50.560;17.852;2022-10-16T05:23:02;99737.03;;;14.43;99.13
21728;BME280;11026;50.560;17.852;2022-10-16T05:25:30;99732.41;;;14.47;99.04
21728;BME280;11026;50.560;17.852;2022-10-16T05:27:57;99726.94;;;14.50;98.86
21728;BME280;11026;50.560;17.852;2022-10-16T05:30:24;99738.09;;;14.57;98.41
21728;BME280;11026;50.560;17.852;2022-10-16T05:32:53;99745.16;;;14.58;98.21
21728;BME280;11026;50.560;17.852;2022-10-16T05:35:20;99743.06;;;14.63;98.27
21728;BME280;11026;50.560;17.852;2022-10-16T05:37:47;99748.50;;;14.61;98.09
21728;BME280;11026;50.560;17.852;2022-10-16T05:40:15;99751.75;;;14.66;97.91
21728;BME280;11026;50.560;17.852;2022-10-16T05:42:42;99762.38;;;14.66;97.82
21728;BME280;11026;50.560;17.852;2022-10-16T05:45:11;99763.25;;;14.67;97.66
21728;BME280;11026;50.560;17.852;2022-10-16T05:47:39;99758.03;;;14.65;97.55
21728;BME280;11026;50.560;17.852;2022-10-16T05:50:06;99760.31;;;14.71;97.60
21728;BME280;11026;50.560;17.852;2022-10-16T05:52:34;99771.06;;;14.70;97.79
21728;BME280;11026;50.560;17.852;2022-10-16T05:55:01;99770.91;;;14.73;97.69
21728;BME280;11026;50.560;17.852;2022-10-16T05:57:29;99774.31;;;14.75;97.71
21728;BME280;11026;50.560;17.852;2022-10-16T05:59:56;99769.00;;;14.75;98.08
21728;BME280;11026;50.560;17.852;2022-10-16T06:02:23;99764.69;;;14.72;98.31
21728;BME280;11026;50.560;17.852;2022-10-16T06:04:51;99771.66;;;14.75;98.43
21728;BME280;11026;50.560;17.852;2022-10-16T06:07:21;99781.44;;;14.74;98.73
21728;BME280;11026;50.560;17.852;2022-10-16T06:09:51;99783.94;;;14.78;98.76
21728;BME280;11026;50.560;17.852;2022-10-16T06:12:19;99781.56;;;14.73;99.22
21728;BME280;11026;50.560;17.852;2022-10-16T06:14:46;99767.63;;;14.68;99.44
21728;BME280;11026;50.560;17.852;2022-10-16T06:17:14;99782.91;;;14.64;100.00
21728;BME280;11026;50.560;17.852;2022-10-16T06:19:41;99770.66;;;14.62;100.00
21728;BME280;11026;50.560;17.852;2022-10-16T06:22:08;99777.09;;;14.58;100.00
21728;BME280;11026;50.560;17.852;2022-10-16T06:24:35;99772.69;;;14.57;100.00
21728;BME280;11026;50.560;17.852;2022-10-16T06:27:03;99780.69;;;14.57;100.00
21728;BME280;11026;50.560;17.852;2022-10-16T06:29:32;99787.53;;;14.61;100.00
21728;BME280;11026;50.560;17.852;2022-10-16T06:32:00;99797.16;;;14.63;100.00
21728;BME280;11026;50.560;17.852;2022-10-16T06:34:27;99786.41;;;14.65;100.00
21728;BME280;11026;50.560;17.852;2022-10-16T06:36:54;99785.13;;;14.72;99.90
21728;BME280;11026;50.560;17.852;2022-10-16T06:39:22;99792.09;;;14.74;99.74
21728;BME280;11026;50.560;17.852;2022-10-16T06:41:49;99798.00;;;14.80;99.23
21728;BME280;11026;50.560;17.852;2022-10-16T06:44:16;99800.84;;;14.76;98.62
21728;BME280;11026;50.560;17.852;2022-10-16T06:46:43;99817.09;;;14.72;98.59
21728;BME280;11026;50.560;17.852;2022-10-16T06:49:10;99808.94;;;14.75;98.96
21728;BME280;11026;50.560;17.852;2022-10-16T06:51:37;99814.16;;;14.76;98.13
21728;BME280;11026;50.560;17.852;2022-10-16T06:54:09;99825.88;;;14.74;98.15
21728;BME280;11026;50.560;17.852;2022-10-16T06:56:36;99821.28;;;14.76;98.31
21728;BME280;11026;50.560;17.852;2022-10-16T06:59:04;99834.28;;;14.82;97.79
21728;BME280;11026;50.560;17.852;2022-10-16T07:01:32;99817.34;;;14.83;97.33
21728;BME280;11026;50.560;17.852;2022-10-16T07:04:00;99836.50;;;14.90;96.80
21728;BME280;11026;50.560;17.852;2022-10-16T07:06:31;99839.84;;;14.93;96.25
21728;BME280;11026;50.560;17.852;2022-10-16T07:09:01;99837.78;;;14.98;96.10
21728;BME280;11026;50.560;17.852;2022-10-16T07:11:28;99839.50;;;14.99;95.70
21728;BME280;11026;50.560;17.852;2022-10-16T07:13:56;99833.13;;;15.02;95.65
21728;BME280;11026;50.560;17.852;2022-10-16T07:16:28;99837.16;;;15.09;95.33
21728;BME280;11026;50.560;17.852;2022-10-16T07:18:56;99830.09;;;15.08;94.33
21728;BME280;11026;50.560;17.852;2022-10-16T07:21:32;99831.56;;;15.14;94.63
21728;BME280;11026;50.560;17.852;2022-10-16T07:24:04;99836.63;;;15.18;93.63
21728;BME280;11026;50.560;17.852;2022-10-16T07:26:34;99854.06;;;15.24;93.28
21728;BME280;11026;50.560;17.852;2022-10-16T07:29:02;99843.06;;;15.30;93.19
21728;BME280;11026;50.560;17.852;2022-10-16T07:31:30;99852.47;;;15.36;92.61
21728;BME280;11026;50.560;17.852;2022-10-16T07:33:59;99849.47;;;15.42;92.28
21728;BME280;11026;50.560;17.852;2022-10-16T07:36:26;99840.91;;;15.51;91.60
21728;BME280;11026;50.560;17.852;2022-10-16T07:38:54;99847.34;;;15.63;91.43
21728;BME280;11026;50.560;17.852;2022-10-16T07:41:25;99851.94;;;15.75;90.17
21728;BME280;11026;50.560;17.852;2022-10-16T07:43:53;99850.63;;;15.82;89.43
21728;BME280;11026;50.560;17.852;2022-10-16T07:46:22;99846.34;;;15.80;88.63
21728;BME280;11026;50.560;17.852;2022-10-16T07:48:49;99859.22;;;15.87;88.64
21728;BME280;11026;50.560;17.852;2022-10-16T07:51:22;99860.38;;;15.97;88.34
21728;BME280;11026;50.560;17.852;2022-10-16T07:53:50;99855.44;;;16.06;88.08
21728;BME280;11026;50.560;17.852;2022-10-16T07:56:20;99853.31;;;16.11;87.52
21728;BME280;11026;50.560;17.852;2022-10-16T07:58:48;99861.72;;;16.19;87.19
21728;BME280;11026;50.560;17.852;2022-10-16T08:01:17;99852.56;;;16.23;86.74
21728;BME280;11026;50.560;17.852;2022-10-16T08:03:48;99871.75;;;16.30;86.59
21728;BME280;11026;50.560;17.852;2022-10-16T08:06:17;99869.25;;;16.41;86.13
21728;BME280;11026;50.560;17.852;2022-10-16T08:08:50;99867.63;;;16.38;86.48
21728;BME280;11026;50.560;17.852;2022-10-16T08:11:18;99881.94;;;16.37;86.45
21728;BME280;11026;50.560;17.852;2022-10-16T08:13:45;99881.56;;;16.43;86.02
21728;BME280;11026;50.560;17.852;2022-10-16T08:16:12;99878.50;;;16.50;85.60
21728;BME280;11026;50.560;17.852;2022-10-16T08:18:40;99872.75;;;16.70;85.12
21728;BME280;11026;50.560;17.852;2022-10-16T08:21:12;99885.72;;;16.90;84.34
21728;BME280;11026;50.560;17.852;2022-10-16T08:23:46;99883.97;;;17.04;83.74
21728;BME280;11026;50.560;17.852;2022-10-16T08:26:22;99889.50;;;17.15;83.54
21728;BME280;11026;50.560;17.852;2022-10-16T08:28:50;99887.16;;;17.23;82.84
21728;BME280;11026;50.560;17.852;2022-10-16T08:31:18;99884.72;;;17.33;82.71
21728;BME280;11026;50.560;17.852;2022-10-16T08:33:47;99881.34;;;17.43;82.17
21728;BME280;11026;50.560;17.852;2022-10-16T08:36:15;99875.69;;;17.48;81.68
21728;BME280;11026;50.560;17.852;2022-10-16T08:38:43;99887.19;;;17.63;81.93
21728;BME280;11026;50.560;17.852;2022-10-16T08:41:57;99889.53;;;17.55;81.33
21728;BME280;11026;50.560;17.852;2022-10-16T08:46:53;99890.44;;;17.81;81.33
21728;BME280;11026;50.560;17.852;2022-10-16T08:49:24;99893.50;;;18.02;80.13
21728;BME280;11026;50.560;17.852;2022-10-16T08:51:52;99908.66;;;17.88;79.09
21728;BME280;11026;50.560;17.852;2022-10-16T08:57:11;99906.88;;;18.02;79.63
21728;BME280;11026;50.560;17.852;2022-10-16T08:59:45;99908.13;;;17.96;79.59
21728;BME280;11026;50.560;17.852;2022-10-16T09:02:37;99902.78;;;18.09;79.59
21728;BME280;11026;50.560;17.852;2022-10-16T09:13:26;99895.84;;;18.06;79.45
21728;BME280;11026;50.560;17.852;2022-10-16T09:19:28;99900.75;;;18.25;78.73
21728;BME280;11026;50.560;17.852;2022-10-16T09:22:13;99898.19;;;18.24;78.24
21728;BME280;11026;50.560;17.852;2022-10-16T09:24:41;99896.47;;;18.23;78.73
21728;BME280;11026;50.560;17.852;2022-10-16T09:27:14;99904.06;;;18.29;78.75
21728;BME280;11026;50.560;17.852;2022-10-16T09:29:42;99899.03;;;18.24;77.91
21728;BME280;11026;50.560;17.852;2022-10-16T09:32:16;99918.00;;;18.21;77.52
21728;BME280;11026;50.560;17.852;2022-10-16T09:34:47;99912.41;;;18.37;78.54
21728;BME280;11026;50.560;17.852;2022-10-16T09:37:18;99909.44;;;18.54;77.46
21728;BME280;11026;50.560;17.852;2022-10-16T09:39:51;99916.72;;;18.78;76.58
21728;BME280;11026;50.560;17.852;2022-10-16T09:42:21;99921.53;;;18.85;76.48
21728;BME280;11026;50.560;17.852;2022-10-16T09:44:51;99921.66;;;18.71;75.70
21728;BME280;11026;50.560;17.852;2022-10-16T09:47:24;99919.59;;;18.75;75.72
21728;BME280;11026;50.560;17.852;2022-10-16T09:50:01;99922.06;;;18.65;76.04
21728;BME280;11026;50.560;17.852;2022-10-16T09:52:31;99919.91;;;18.44;76.71
21728;BME280;11026;50.560;17.852;2022-10-16T09:55:12;99925.84;;;18.50;77.10
21728;BME280;11026;50.560;17.852;2022-10-16T09:57:53;99922.84;;;18.41;77.61
21728;BME280;11026;50.560;17.852;2022-10-16T10:00:22;99921.44;;;18.23;76.80
21728;BME280;11026;50.560;17.852;2022-10-16T10:02:49;99924.22;;;18.22;77.78
21728;BME280;11026;50.560;17.852;2022-10-16T10:05:22;99936.53;;;18.24;77.72
21728;BME280;11026;50.560;17.852;2022-10-16T10:08:02;99930.97;;;18.27;78.17
21728;BME280;11026;50.560;17.852;2022-10-16T10:10:38;99935.28;;;18.30;77.81
21728;BME280;11026;50.560;17.852;2022-10-16T10:13:19;99938.59;;;18.33;77.42
21728;BME280;11026;50.560;17.852;2022-10-16T10:15:47;99940.94;;;18.38;77.27
21728;BME280;11026;50.560;17.852;2022-10-16T10:18:16;99943.38;;;18.41;77.03
21728;BME280;11026;50.560;17.852;2022-10-16T10:20:45;99937.41;;;18.76;76.71
21728;BME280;11026;50.560;17.852;2022-10-16T10:23:30;99928.91;;;18.95;74.75
21728;BME280;11026;50.560;17.852;2022-10-16T10:29:23;99938.56;;;18.97;73.42
21728;BME280;11026;50.560;17.852;2022-10-16T10:31:34;99932.97;;;18.87;74.06
21728;BME280;11026;50.560;17.852;2022-10-16T10:43:13;99933.88;;;19.49;72.69
21728;BME280;11026;50.560;17.852;2022-10-16T10:45:48;99928.66;;;19.82;72.44
21728;BME280;11026;50.560;17.852;2022-10-16T10:54:24;99932.81;;;19.86;69.63
21728;BME280;11026;50.560;17.852;2022-10-16T10:57:00;99933.03;;;19.72;70.46
21728;BME280;11026;50.560;17.852;2022-10-16T10:59:32;99936.00;;;19.92;70.71
21728;BME280;11026;50.560;17.852;2022-10-16T11:05:28;99933.47;;;19.66;69.82
21728;BME280;11026;50.560;17.852;2022-10-16T11:08:04;99950.34;;;19.68;71.21
21728;BME280;11026;50.560;17.852;2022-10-16T11:10:44;99944.25;;;19.77;71.04
21728;BME280;11026;50.560;17.852;2022-10-16T11:16:02;99955.44;;;19.71;71.12
21728;BME280;11026;50.560;17.852;2022-10-16T11:21:30;99952.56;;;19.37;72.46
21728;BME280;11026;50.560;17.852;2022-10-16T11:24:19;99947.31;;;19.36;72.60
21728;BME280;11026;50.560;17.852;2022-10-16T11:26:49;99958.66;;;19.39;72.26
21728;BME280;11026;50.560;17.852;2022-10-16T11:29:23;99958.97;;;19.48;71.99
21728;BME280;11026;50.560;17.852;2022-10-16T11:31:58;99951.16;;;19.45;72.88
21728;BME280;11026;50.560;17.852;2022-10-16T11:37:12;99952.78;;;19.34;71.69
21728;BME280;11026;50.560;17.852;2022-10-16T11:39:42;99948.84;;;19.51;72.53
21728;BME280;11026;50.560;17.852;2022-10-16T11:42:20;99939.81;;;19.65;71.83
21728;BME280;11026;50.560;17.852;2022-10-16T11:45:03;99939.13;;;19.74;71.85
21728;BME280;11026;50.560;17.852;2022-10-16T11:47:44;99933.66;;;19.87;71.49
21728;BME280;11026;50.560;17.852;2022-10-16T11:50:46;99936.56;;;19.73;71.53
21728;BME280;11026;50.560;17.852;2022-10-16T11:55:51;99930.34;;;19.83;71.47
21728;BME280;11026;50.560;17.852;2022-10-16T11:58:47;99938.56;;;20.28;71.11
21728;BME280;11026;50.560;17.852;2022-10-16T12:06:51;99936.16;;;20.81;67.93
21728;BME280;11026;50.560;17.852;2022-10-16T12:09:34;99944.44;;;20.45;69.26
21728;BME280;11026;50.560;17.852;2022-10-16T12:12:03;99939.25;;;20.19;70.28
21728;BME280;11026;50.560;17.852;2022-10-16T12:17:42;99940.91;;;19.98;70.67
21728;BME280;11026;50.560;17.852;2022-10-16T12:25:36;99964.84;;;19.53;71.91
21728;BME280;11026;50.560;17.852;2022-10-16T12:30:42;99963.31;;;19.37;73.02
21728;BME280;11026;50.560;17.852;2022-10-16T12:33:27;99964.50;;;19.33;73.20
21728;BME280;11026;50.560;17.852;2022-10-16T12:35:55;99959.97;;;19.10;74.09
21728;BME280;11026;50.560;17.852;2022-10-16T12:41:12;99946.03;;;19.05;74.75
21728;BME280;11026;50.560;17.852;2022-10-16T12:43:50;99935.28;;;19.17;75.23
21728;BME280;11026;50.560;17.852;2022-10-16T12:48:44;99937.31;;;19.14;74.05
21728;BME280;11026;50.560;17.852;2022-10-16T13:02:39;99966.59;;;19.17;74.10
21728;BME280;11026;50.560;17.852;2022-10-16T13:07:46;99962.13;;;19.89;72.43
21728;BME280;11026;50.560;17.852;2022-10-16T13:10:35;99972.06;;;20.00;70.70
21728;BME280;11026;50.560;17.852;2022-10-16T13:18:51;99985.03;;;21.09;68.28
21728;BME280;11026;50.560;17.852;2022-10-16T13:27:07;99995.56;;;22.94;59.80
21728;BME280;11026;50.560;17.852;2022-10-16T13:29:37;99996.03;;;21.83;62.44
21728;BME280;11026;50.560;17.852;2022-10-16T13:32:10;99981.13;;;21.24;63.80
21728;BME280;11026;50.560;17.852;2022-10-16T13:34:47;99987.88;;;20.85;66.65
21728;BME280;11026;50.560;17.852;2022-10-16T13:37:19;99988.31;;;21.90;64.49
21728;BME280;11026;50.560;17.852;2022-10-16T13:39:47;99995.53;;;22.42;61.40
21728;BME280;11026;50.560;17.852;2022-10-16T13:42:28;100003.22;;;22.47;60.95
21728;BME280;11026;50.560;17.852;2022-10-16T13:44:56;99995.41;;;22.44;59.73
21728;BME280;11026;50.560;17.852;2022-10-16T13:47:28;99980.06;;;22.65;60.43
21728;BME280;11026;50.560;17.852;2022-10-16T13:50:14;99987.28;;;22.86;58.74
21728;BME280;11026;50.560;17.852;2022-10-16T13:52:42;99994.84;;;22.71;59.39
21728;BME280;11026;50.560;17.852;2022-10-16T13:55:16;99993.94;;;22.81;58.78
21728;BME280;11026;50.560;17.852;2022-10-16T13:57:44;99989.81;;;22.36;60.18
21728;BME280;11026;50.560;17.852;2022-10-16T14:00:23;100012.41;;;21.91;61.59
21728;BME280;11026;50.560;17.852;2022-10-16T14:02:51;99995.31;;;21.15;63.96
21728;BME280;11026;50.560;17.852;2022-10-16T14:05:18;99997.88;;;20.60;66.11
21728;BME280;11026;50.560;17.852;2022-10-16T14:07:49;100003.78;;;20.42;67.55
21728;BME280;11026;50.560;17.852;2022-10-16T14:10:29;99992.00;;;20.20;69.04
21728;BME280;11026;50.560;17.852;2022-10-16T14:13:05;99995.28;;;20.12;69.74
21728;BME280;11026;50.560;17.852;2022-10-16T14:15:35;99996.63;;;20.18;69.47
21728;BME280;11026;50.560;17.852;2022-10-16T14:18:03;99999.19;;;20.08;70.09
21728;BME280;11026;50.560;17.852;2022-10-16T14:20:32;100002.00;;;20.18;70.30
21728;BME280;11026;50.560;17.852;2022-10-16T14:23:16;99996.84;;;20.15;70.22
21728;BME280;11026;50.560;17.852;2022-10-16T14:25:45;100002.53;;;20.34;69.82
21728;BME280;11026;50.560;17.852;2022-10-16T14:28:14;100001.59;;;20.35;69.95
21728;BME280;11026;50.560;17.852;2022-10-16T14:30:55;100007.44;;;20.41;69.49
21728;BME280;11026;50.560;17.852;2022-10-16T14:33:32;100009.94;;;20.55;69.83
21728;BME280;11026;50.560;17.852;2022-10-16T14:36:03;100004.84;;;20.74;69.07
21728;BME280;11026;50.560;17.852;2022-10-16T14:38:32;100012.19;;;21.51;67.89
21728;BME280;11026;50.560;17.852;2022-10-16T14:41:00;100007.09;;;22.75;64.58
21728;BME280;11026;50.560;17.852;2022-10-16T14:46:02;100006.91;;;23.97;58.19
21728;BME280;11026;50.560;17.852;2022-10-16T14:48:30;100008.06;;;24.04;56.71
21728;BME280;11026;50.560;17.852;2022-10-16T14:50:57;100019.69;;;23.66;58.80
21728;BME280;11026;50.560;17.852;2022-10-16T14:53:24;100015.50;;;23.12;59.76